createdAt,value
2023-03-12T00:01:17.018Z,1.20
2023-03-12T00:04:20.928Z,1.17
2023-03-12T00:07:24.082Z,1.17
2023-03-12T00:10:28.558Z,1.15
2023-03-12T00:13:31.584Z,1.16
2023-03-12T00:16:34.739Z,1.18
2023-03-12T00:19:37.780Z,1.22
2023-03-12T00:22:41.436Z,1.17
2023-03-12T00:25:46.918Z,1.19
2023-03-12T00:28:50.998Z,1.17
2023-03-12T00:31:54.207Z,1.16
2023-03-12T00:34:57.927Z,1.12
2023-03-12T00:38:03.229Z,1.14
2023-03-12T00:41:07.914Z,1.13
2023-03-12T00:44:14.085Z,1.15
2023-03-12T00:47:17.480Z,1.14
2023-03-12T00:50:20.898Z,1.15
2023-03-12T00:53:27.132Z,1.17
2023-03-12T00:56:31.817Z,1.19
2023-03-12T00:59:35.346Z,1.14
2023-03-12T01:02:39.703Z,1.19
2023-03-12T01:05:49.035Z,1.24
2023-03-12T01:08:55.269Z,1.27
2023-03-12T01:12:03.147Z,1.29
2023-03-12T01:15:11.901Z,1.34
2023-03-12T01:18:15.596Z,1.34
2023-03-12T01:21:21.459Z,1.37
2023-03-12T01:24:25.471Z,1.38
2023-03-12T01:27:30.438Z,1.40
2023-03-12T01:30:35.734Z,1.44
2023-03-12T01:33:40.205Z,1.42
2023-03-12T01:36:52.212Z,1.45
2023-03-12T01:40:04.673Z,1.42
2023-03-12T01:43:31.724Z,1.38
2023-03-12T01:46:38.385Z,1.39
2023-03-12T01:49:49.760Z,1.40
2023-03-12T01:53:07.077Z,1.45
2023-03-12T01:56:11.975Z,1.48
2023-03-12T01:59:23.831Z,1.48
2023-03-12T02:02:32.166Z,1.52
2023-03-12T02:05:44.364Z,1.48
2023-03-12T02:08:49.188Z,1.49
2023-03-12T02:11:52.414Z,1.50
2023-03-12T02:14:58.033Z,1.51
2023-03-12T02:18:04.086Z,1.49
2023-03-12T02:21:17.480Z,1.46
2023-03-12T02:24:31.814Z,1.42
2023-03-12T02:27:38.483Z,1.41
2023-03-12T02:30:45.898Z,1.39
2023-03-12T02:33:49.457Z,1.39
2023-03-12T02:36:55.641Z,1.36
2023-03-12T02:40:06.752Z,1.35
2023-03-12T02:43:14.730Z,1.30
2023-03-12T02:46:18.434Z,1.23
2023-03-12T02:49:26.151Z,1.21
2023-03-12T02:52:35.537Z,1.18
2023-03-12T02:55:38.899Z,1.09
2023-03-12T02:58:44.737Z,1.10
2023-03-12T03:01:48.363Z,0.98
2023-03-12T03:04:51.876Z,0.98
2023-03-12T03:08:01.071Z,0.96
2023-03-12T03:11:04.508Z,0.89
2023-03-12T03:14:10.429Z,0.88
2023-03-12T03:17:16.103Z,0.84
2023-03-12T03:20:21.300Z,0.80
2023-03-12T03:23:26.081Z,0.80
2023-03-12T03:26:29.326Z,0.75
2023-03-12T03:29:37.036Z,0.68
2023-03-12T03:32:40.474Z,0.70
2023-03-12T03:35:44.919Z,0.70
2023-03-12T03:38:50.477Z,0.68
2023-03-12T03:41:54.656Z,0.70
2023-03-12T03:45:09.252Z,0.61
2023-03-12T03:48:13.467Z,0.62
2023-03-12T03:51:17.092Z,0.59
2023-03-12T03:54:23.465Z,0.56
2023-03-12T03:57:27.797Z,0.51
2023-03-12T04:00:32.701Z,0.56
2023-03-12T04:03:36.961Z,0.56
2023-03-12T04:06:43.307Z,0.50
2023-03-12T04:09:47.013Z,0.51
2023-03-12T04:12:56.693Z,0.47
2023-03-12T04:16:01.828Z,0.51
2023-03-12T04:19:05.231Z,0.47
2023-03-12T04:22:08.816Z,0.49
2023-03-12T04:25:12.100Z,0.45
2023-03-12T04:28:21.217Z,0.45
2023-03-12T04:31:29.390Z,0.38
2023-03-12T04:34:32.714Z,0.42
2023-03-12T04:37:44.050Z,0.40
2023-03-12T04:40:58.173Z,0.33
2023-03-12T04:44:01.471Z,0.34
2023-03-12T04:47:06.535Z,0.32
2023-03-12T04:50:18.381Z,0.28
2023-03-12T04:53:25.795Z,0.25
2023-03-12T04:56:29.329Z,0.24
2023-03-12T04:59:32.850Z,0.23
2023-03-12T05:02:38.132Z,0.20
2023-03-12T05:05:41.691Z,0.18
2023-03-12T05:08:50.994Z,0.18
2023-03-12T05:11:57.547Z,0.20
2023-03-12T05:15:02.280Z,0.14
2023-03-12T05:18:10.775Z,0.13
2023-03-12T05:21:16.809Z,0.14
2023-03-12T05:24:24.085Z,0.16
2023-03-12T05:27:28.471Z,0.14
2023-03-12T05:30:32.617Z,0.10
2023-03-12T05:33:40.270Z,0.09
2023-03-12T05:36:45.208Z,0.09
2023-03-12T05:39:57.280Z,0.04
2023-03-12T05:43:00.523Z,0.06
2023-03-12T05:46:06.405Z,0.03
2023-03-12T05:49:12.845Z,-0.02
2023-03-12T05:52:18.630Z,-0.04
2023-03-12T05:55:21.974Z,-0.03
2023-03-12T05:58:34.294Z,0.01
2023-03-12T06:01:46.170Z,-0.02
2023-03-12T06:04:56.712Z,0.03
2023-03-12T06:08:02.374Z,-0.02
2023-03-12T06:11:11.449Z,-0.06
2023-03-12T06:14:19.046Z,-0.03
2023-03-12T06:17:22.722Z,-0.02
2023-03-12T06:20:30.969Z,-0.04
2023-03-12T06:23:37.390Z,0.03
2023-03-12T06:26:42.711Z,0.03
2023-03-12T06:29:47.164Z,0.12
2023-03-12T06:32:52.541Z,0.13
2023-03-12T06:35:58.583Z,0.21
2023-03-12T06:39:01.680Z,0.16
2023-03-12T06:42:05.257Z,0.24
2023-03-12T06:45:12.054Z,0.30
2023-03-12T06:48:16.096Z,0.31
2023-03-12T06:51:28.630Z,0.39
2023-03-12T06:54:37.630Z,0.45
2023-03-12T06:57:55.626Z,0.46
2023-03-12T07:00:59.056Z,0.53
2023-03-12T07:04:05.548Z,0.62
2023-03-12T07:07:11.913Z,0.68
2023-03-12T07:10:28.390Z,0.77
2023-03-12T07:18:03.048Z,1.01
2023-03-12T07:21:14.830Z,1.13
2023-03-12T07:24:27.900Z,1.24
2023-03-12T07:27:35.886Z,1.30
2023-03-12T07:30:57.742Z,1.38
2023-03-12T07:36:18.346Z,1.47
2023-03-12T07:38:53.577Z,1.45
2023-03-12T07:42:24.717Z,1.46
2023-03-12T07:46:24.896Z,1.48
2023-03-12T07:50:02.326Z,1.65
2023-03-12T07:53:23.561Z,1.63
2023-03-12T07:57:11.838Z,1.76
2023-03-12T08:01:13.435Z,1.79
2023-03-12T08:05:05.221Z,1.89
2023-03-12T08:08:19.561Z,1.93
2023-03-12T08:11:48.675Z,2.05
2023-03-12T08:18:39.796Z,2.16
2023-03-12T08:45:17.210Z,2.90
2023-03-12T09:09:05.174Z,3.26
2023-03-12T09:12:17.640Z,3.33
2023-03-12T09:15:46.730Z,3.34
2023-03-12T09:19:02.329Z,3.33
2023-03-12T09:22:10.020Z,3.35
2023-03-12T09:25:29.180Z,3.54
2023-03-12T09:28:37.035Z,3.84
2023-03-12T09:32:33.621Z,4.02
2023-03-12T09:35:52.485Z,4.21
2023-03-12T09:39:06.088Z,4.32
2023-03-12T09:43:09.684Z,4.45
2023-03-12T09:46:46.081Z,4.62
2023-03-12T09:50:21.636Z,4.66
2023-03-12T09:54:48.018Z,4.99
2023-03-12T09:58:13.695Z,4.89
2023-03-12T10:02:11.516Z,5.23
2023-03-12T10:06:03.789Z,5.48
2023-03-12T10:10:11.553Z,5.83
2023-03-12T10:13:35.448Z,5.70
2023-03-12T10:17:00.089Z,5.93
2023-03-12T10:20:51.938Z,5.93
2023-03-12T10:24:46.786Z,6.36
2023-03-12T10:28:34.487Z,5.85
2023-03-12T10:32:11.569Z,6.00
2023-03-12T10:35:33.597Z,6.09
2023-03-12T10:38:37.369Z,6.47
2023-03-12T10:41:43.589Z,6.49
2023-03-12T10:44:52.874Z,6.73
2023-03-12T10:48:03.019Z,6.72
2023-03-12T10:51:15.049Z,6.68
2023-03-12T10:54:41.526Z,6.42
2023-03-12T10:57:59.043Z,6.65
2023-03-12T11:01:27.342Z,6.74
2023-03-12T11:04:53.281Z,6.93
2023-03-12T11:08:02.040Z,7.00
2023-03-12T11:11:08.959Z,7.22
2023-03-12T11:14:22.155Z,7.37
2023-03-12T11:17:41.087Z,7.68
2023-03-12T11:20:52.216Z,7.43
2023-03-12T11:24:15.237Z,7.19
2023-03-12T11:28:08.077Z,7.46
2023-03-12T11:32:17.381Z,7.31
2023-03-12T11:36:23.927Z,7.30
2023-03-12T11:40:17.012Z,7.25
2023-03-12T11:48:43.476Z,7.49
2023-03-12T11:53:03.235Z,7.17
2023-03-12T12:27:33.808Z,7.47
2023-03-12T12:31:04.809Z,7.24
2023-03-12T12:35:06.610Z,7.21
2023-03-12T12:38:32.072Z,6.99
2023-03-12T12:42:07.876Z,7.09
2023-03-12T12:45:26.530Z,7.38
2023-03-12T12:49:08.589Z,7.40
2023-03-12T12:52:29.843Z,7.07
2023-03-12T12:55:50.050Z,7.15
2023-03-12T12:59:46.930Z,7.20
2023-03-12T13:03:08.209Z,7.16
2023-03-12T13:06:12.556Z,7.07
2023-03-12T13:09:37.432Z,6.84
2023-03-12T13:13:03.697Z,6.86
2023-03-12T13:16:35.057Z,6.83
2023-03-12T13:19:55.600Z,6.82
2023-03-12T13:23:38.951Z,6.81
2023-03-12T13:27:15.523Z,6.81
2023-03-12T13:30:52.569Z,6.75
2023-03-12T13:34:01.663Z,6.67
2023-03-12T13:37:56.253Z,6.90
2023-03-12T13:41:03.841Z,6.82
2023-03-12T13:44:54.136Z,6.69
2023-03-12T13:48:06.401Z,6.50
2023-03-12T13:51:25.411Z,6.38
2023-03-12T13:54:41.764Z,6.49
2023-03-12T13:58:26.278Z,6.38
2023-03-12T14:01:45.145Z,6.40
2023-03-12T14:04:54.072Z,6.40
2023-03-12T14:09:09.319Z,6.41
2023-03-12T14:12:23.475Z,6.29
2023-03-12T14:15:39.466Z,6.29
2023-03-12T14:18:54.159Z,6.13
2023-03-12T14:22:09.087Z,6.09
2023-03-12T14:25:31.071Z,6.07
2023-03-12T14:28:47.663Z,6.00
2023-03-12T14:32:25.142Z,5.94
2023-03-12T14:35:38.015Z,5.87
2023-03-12T14:38:49.171Z,5.94
2023-03-12T14:42:06.664Z,5.75
2023-03-12T14:45:19.929Z,5.76
2023-03-12T14:48:38.485Z,5.84
2023-03-12T14:51:46.864Z,5.80
2023-03-12T14:55:04.732Z,5.79
2023-03-12T14:58:30.927Z,5.66
2023-03-12T15:01:39.759Z,5.66
2023-03-12T15:04:50.191Z,5.64
2023-03-12T15:08:04.109Z,5.60
2023-03-12T15:11:10.678Z,5.57
2023-03-12T15:14:22.269Z,5.47
2023-03-12T15:17:33.628Z,5.38
2023-03-12T15:20:41.563Z,5.46
2023-03-12T15:23:48.670Z,5.54
2023-03-12T15:27:04.987Z,5.65
2023-03-12T15:30:33.301Z,5.56
2023-03-12T15:33:37.050Z,5.52
2023-03-12T15:37:00.902Z,5.35
2023-03-12T15:40:22.282Z,5.11
2023-03-12T15:43:41.307Z,4.93
2023-03-12T15:46:53.666Z,4.94
2023-03-12T15:50:36.919Z,4.93
2023-03-12T15:54:41.628Z,4.88
2023-03-12T15:58:06.081Z,4.82
2023-03-12T16:01:12.556Z,4.84
2023-03-12T16:04:15.768Z,4.76
2023-03-12T16:07:19.245Z,4.75
2023-03-12T16:10:30.037Z,4.70
2023-03-12T16:13:45.656Z,4.69
2023-03-12T16:16:58.158Z,4.52
2023-03-12T16:20:01.332Z,4.57
2023-03-12T16:23:11.341Z,4.42
2023-03-12T16:26:41.708Z,4.43
2023-03-12T16:30:14.156Z,4.42
2023-03-12T16:33:22.746Z,4.48
2023-03-12T16:37:01.516Z,4.44
2023-03-12T16:40:35.152Z,4.45
2023-03-12T16:44:02.748Z,4.46
2023-03-12T16:47:18.683Z,4.43
2023-03-12T16:50:44.781Z,4.44
2023-03-12T16:54:10.745Z,4.32
2023-03-12T16:57:40.908Z,4.15
2023-03-12T17:01:14.376Z,4.14
2023-03-12T17:04:45.590Z,4.09
2023-03-12T17:07:54.435Z,4.00
2023-03-12T17:15:01.953Z,3.87
2023-03-12T17:18:26.773Z,3.97
2023-03-12T17:21:53.001Z,3.94
2023-03-12T17:25:11.354Z,4.01
2023-03-12T17:28:24.343Z,4.02
2023-03-12T17:31:34.262Z,4.06
2023-03-12T17:35:03.317Z,4.05
2023-03-12T17:38:06.723Z,4.03
2023-03-12T17:41:25.431Z,4.07
2023-03-12T17:44:38.921Z,4.08
2023-03-12T17:47:42.391Z,4.08
2023-03-12T17:50:49.660Z,4.04
2023-03-12T17:54:05.887Z,4.02
2023-03-12T17:57:11.623Z,3.96
2023-03-12T18:00:23.383Z,3.93
2023-03-12T18:03:32.997Z,3.86
2023-03-12T18:06:40.387Z,3.81
2023-03-12T18:09:59.495Z,3.68
2023-03-12T18:13:05.390Z,3.58
2023-03-12T18:16:11.632Z,3.50
2023-03-12T18:19:16.112Z,3.51
2023-03-12T18:22:26.388Z,3.54
2023-03-12T18:25:46.674Z,3.51
2023-03-12T18:29:01.470Z,3.47
2023-03-12T18:32:23.482Z,3.49
2023-03-12T18:36:08.858Z,3.50
2023-03-12T18:44:39.565Z,3.47
2023-03-12T19:04:05.254Z,3.41
2023-03-12T19:08:41.447Z,3.44
2023-03-12T19:17:57.336Z,3.46
2023-03-12T19:28:43.529Z,3.45
2023-03-12T20:00:57.874Z,3.61
2023-03-12T20:19:00.658Z,3.80
2023-03-12T20:31:11.487Z,3.91
2023-03-12T20:35:16.768Z,4.00
2023-03-12T20:38:43.984Z,4.07
2023-03-12T20:55:09.345Z,4.43
2023-03-12T20:59:01.301Z,4.45
2023-03-12T21:02:53.796Z,4.56
2023-03-12T21:06:26.316Z,4.59
2023-03-12T21:10:05.553Z,4.66
2023-03-12T21:13:34.399Z,4.72
2023-03-12T21:17:00.565Z,4.80
2023-03-12T21:20:33.390Z,4.84
2023-03-12T21:23:40.099Z,4.82
2023-03-12T21:26:52.111Z,4.89
2023-03-12T21:29:55.150Z,4.97
2023-03-12T21:32:59.143Z,4.97
2023-03-12T21:36:09.422Z,5.03
2023-03-12T21:39:17.175Z,5.07
2023-03-12T21:42:22.393Z,5.10
2023-03-12T21:45:32.797Z,5.06
2023-03-12T21:48:41.292Z,5.11
2023-03-12T21:51:44.745Z,5.16
2023-03-12T21:54:54.570Z,5.18
2023-03-12T21:57:59.083Z,5.16
2023-03-12T22:01:17.143Z,5.21
2023-03-12T22:04:22.288Z,5.24
2023-03-12T22:07:30.846Z,5.24
2023-03-12T22:10:35.510Z,5.31
2023-03-12T22:13:43.257Z,5.34
2023-03-12T22:16:50.016Z,5.35
2023-03-12T22:19:53.108Z,5.39
2023-03-12T22:22:57.828Z,5.46
2023-03-12T22:26:05.944Z,5.45
2023-03-12T22:29:10.940Z,5.54
2023-03-12T22:32:13.946Z,5.53
2023-03-12T22:35:25.663Z,5.55
2023-03-12T22:38:34.909Z,5.61
2023-03-12T22:41:37.976Z,5.65
2023-03-12T22:44:44.930Z,5.66
2023-03-12T22:47:49.174Z,5.62
2023-03-12T22:50:54.745Z,5.62
2023-03-12T22:54:03.151Z,5.61
2023-03-12T22:57:08.233Z,5.62
2023-03-12T23:00:16.612Z,5.64
2023-03-12T23:03:19.660Z,5.74
2023-03-12T23:06:25.232Z,5.73
2023-03-12T23:09:36.232Z,5.70
2023-03-12T23:12:42.604Z,5.77
2023-03-12T23:15:46.974Z,5.74
2023-03-12T23:18:53.470Z,5.74
2023-03-12T23:22:02.053Z,5.76
2023-03-12T23:25:12.022Z,5.77
2023-03-12T23:28:19.240Z,5.82
2023-03-12T23:31:29.613Z,5.79
2023-03-12T23:34:40.329Z,5.86
2023-03-12T23:37:45.744Z,5.88
2023-03-12T23:40:48.821Z,5.89
2023-03-12T23:43:52.590Z,5.92
2023-03-12T23:46:56.971Z,5.97
2023-03-12T23:50:03.414Z,5.96
2023-03-12T23:53:16.703Z,6.03
2023-03-12T23:56:21.963Z,6.10
2023-03-12T23:59:24.921Z,6.14
